createdAt,value
2018-04-26T00:02:00.704Z,5.17
2018-04-26T00:04:28.226Z,5.57
2018-04-26T00:06:55.758Z,4.70
2018-04-26T00:09:23.275Z,5.83
2018-04-26T00:11:50.747Z,5.20
2018-04-26T00:14:18.247Z,4.67
2018-04-26T00:16:45.814Z,4.23
2018-04-26T00:19:13.303Z,5.40
2018-04-26T00:21:40.808Z,6.00
2018-04-26T00:24:08.292Z,5.27
2018-04-26T00:26:35.773Z,5.70
2018-04-26T00:29:03.251Z,6.20
2018-04-26T00:31:30.749Z,4.97
2018-04-26T00:33:58.216Z,5.27
2018-04-26T00:36:25.706Z,6.10
2018-04-26T00:38:53.268Z,5.70
2018-04-26T00:41:20.756Z,4.73
2018-04-26T00:43:48.241Z,5.47
2018-04-26T00:46:15.733Z,5.60
2018-04-26T00:48:43.272Z,4.83
2018-04-26T00:51:10.802Z,5.10
2018-04-26T00:53:38.427Z,5.37
2018-04-26T00:56:05.913Z,5.10
2018-04-26T00:58:33.408Z,4.90
2018-04-26T01:01:00.979Z,4.80
2018-04-26T01:03:28.479Z,5.90
2018-04-26T01:05:56.012Z,5.13
2018-04-26T01:08:23.501Z,5.57
2018-04-26T01:10:50.964Z,4.90
2018-04-26T01:13:18.433Z,5.47
2018-04-26T01:15:46.074Z,5.20
2018-04-26T01:18:13.588Z,5.47
2018-04-26T01:20:41.094Z,4.70
2018-04-26T01:23:08.638Z,4.60
2018-04-26T01:25:36.132Z,4.67
2018-04-26T01:28:03.620Z,4.27
2018-04-26T01:30:31.104Z,4.30
2018-04-26T01:32:58.583Z,4.30
2018-04-26T01:35:26.041Z,3.93
2018-04-26T01:37:53.562Z,4.17
2018-04-26T01:40:21.078Z,4.67
2018-04-26T01:42:48.628Z,4.60
2018-04-26T01:45:16.044Z,4.80
2018-04-26T01:47:43.528Z,4.70
2018-04-26T01:50:11.035Z,4.10
2018-04-26T01:52:38.556Z,4.60
2018-04-26T01:55:06.068Z,4.60
2018-04-26T01:57:33.596Z,3.80
2018-04-26T02:00:01.318Z,4.50
2018-04-26T02:02:28.837Z,4.00
2018-04-26T02:04:56.419Z,3.73
2018-04-26T02:07:24.058Z,4.27
2018-04-26T02:09:51.549Z,3.50
2018-04-26T02:12:19.039Z,4.00
2018-04-26T02:14:46.525Z,3.93
2018-04-26T02:17:14.023Z,4.43
2018-04-26T02:19:41.511Z,3.50
2018-04-26T02:22:09.047Z,3.80
2018-04-26T02:24:36.537Z,3.90
2018-04-26T02:27:04.053Z,3.60
2018-04-26T02:29:31.539Z,3.33
2018-04-26T02:31:59.012Z,4.23
2018-04-26T02:34:26.528Z,3.80
2018-04-26T02:36:54.036Z,3.70
2018-04-26T02:39:21.525Z,3.90
2018-04-26T02:41:48.998Z,3.73
2018-04-26T02:44:16.495Z,4.00
2018-04-26T02:46:44.102Z,3.83
2018-04-26T02:49:11.607Z,4.00
2018-04-26T02:51:39.311Z,4.00
2018-04-26T02:54:06.837Z,3.50
2018-04-26T02:56:34.363Z,4.33
2018-04-26T02:59:01.838Z,4.17
2018-04-26T03:01:29.399Z,4.20
2018-04-26T03:03:56.897Z,3.97
2018-04-26T03:06:24.433Z,3.53
2018-04-26T03:08:51.971Z,4.47
2018-04-26T03:11:19.466Z,3.50
2018-04-26T03:13:46.967Z,3.97
2018-04-26T03:16:14.451Z,4.20
2018-04-26T03:18:41.955Z,4.30
2018-04-26T03:21:09.487Z,4.40
2018-04-26T03:23:36.979Z,3.40
2018-04-26T03:26:04.476Z,3.87
2018-04-26T03:28:31.982Z,3.67
2018-04-26T03:30:59.570Z,4.87
2018-04-26T03:33:26.982Z,3.80
2018-04-26T03:35:54.531Z,3.67
2018-04-26T03:38:22.060Z,3.80
2018-04-26T03:40:49.578Z,4.37
2018-04-26T03:43:17.071Z,4.70
2018-04-26T03:45:44.565Z,4.37
2018-04-26T03:48:12.075Z,4.90
2018-04-26T03:50:39.677Z,4.23
2018-04-26T03:53:07.243Z,4.10
2018-04-26T03:55:34.732Z,4.10
2018-04-26T03:58:02.218Z,4.67
2018-04-26T04:00:41.691Z,4.40
2018-04-26T04:03:21.106Z,4.00
2018-04-26T04:06:11.552Z,4.90
2018-04-26T04:08:39.044Z,5.30
2018-04-26T04:11:06.549Z,4.60
2018-04-26T04:13:34.226Z,5.20
2018-04-26T04:16:01.730Z,4.60
2018-04-26T04:18:29.241Z,5.40
2018-04-26T04:20:56.723Z,6.43
2018-04-26T04:23:24.204Z,5.37
2018-04-26T04:25:51.717Z,6.37
2018-04-26T04:28:19.196Z,7.23
2018-04-26T04:30:46.670Z,5.10
2018-04-26T04:33:14.159Z,7.70
2018-04-26T04:35:41.717Z,7.00
2018-04-26T04:38:09.195Z,4.93
2018-04-26T04:40:36.702Z,5.10
2018-04-26T04:43:04.184Z,4.97
2018-04-26T04:45:31.724Z,5.00
2018-04-26T04:47:59.215Z,4.90
2018-04-26T04:50:26.712Z,6.07
2018-04-26T04:52:54.220Z,4.60
2018-04-26T04:55:21.744Z,5.27
2018-04-26T04:57:49.316Z,6.80
2018-04-26T05:00:16.790Z,4.23
2018-04-26T05:02:44.288Z,4.90
2018-04-26T05:05:11.791Z,4.40
2018-04-26T05:07:39.335Z,4.97
2018-04-26T05:10:06.837Z,4.20
2018-04-26T05:12:34.309Z,4.87
2018-04-26T05:15:01.824Z,3.87
2018-04-26T05:17:29.402Z,3.63
2018-04-26T05:19:56.899Z,3.87
2018-04-26T05:22:24.418Z,3.93
2018-04-26T05:24:51.916Z,4.00
2018-04-26T05:27:19.414Z,4.27
2018-04-26T05:29:46.877Z,3.30
2018-04-26T05:32:14.344Z,4.00
2018-04-26T05:34:41.885Z,3.90
2018-04-26T05:37:09.381Z,3.20
2018-04-26T05:39:36.886Z,3.80
2018-04-26T05:42:04.361Z,3.90
2018-04-26T05:44:31.867Z,3.30
2018-04-26T05:46:59.350Z,3.70
2018-04-26T05:49:26.860Z,3.50
2018-04-26T05:51:58.657Z,4.50
2018-04-26T05:54:26.145Z,4.30
2018-04-26T05:56:53.638Z,4.00
2018-04-26T05:59:21.137Z,3.67
2018-04-26T06:01:48.613Z,3.20
2018-04-26T06:04:16.105Z,3.97
2018-04-26T06:06:43.570Z,3.17
2018-04-26T06:09:11.073Z,4.37
2018-04-26T06:11:38.574Z,4.43
2018-04-26T06:14:06.220Z,3.53
2018-04-26T06:16:33.709Z,4.03
2018-04-26T06:19:01.206Z,3.50
2018-04-26T06:21:28.688Z,3.47
2018-04-26T06:23:56.173Z,3.13
2018-04-26T06:26:23.660Z,3.67
2018-04-26T06:28:51.253Z,3.70
2018-04-26T06:31:18.793Z,4.17
2018-04-26T06:33:46.299Z,3.40
2018-04-26T06:36:13.789Z,3.17
2018-04-26T06:38:41.288Z,3.37
2018-04-26T06:41:08.805Z,2.83
2018-04-26T06:43:36.285Z,3.87
2018-04-26T06:46:03.762Z,3.03
2018-04-26T06:48:31.270Z,2.23
2018-04-26T06:50:58.774Z,2.90
2018-04-26T06:53:26.356Z,3.53
2018-04-26T06:55:53.800Z,2.67
2018-04-26T06:58:21.298Z,3.07
2018-04-26T07:00:48.787Z,2.73
2018-04-26T07:03:16.279Z,2.63
2018-04-26T07:05:43.787Z,2.50
2018-04-26T07:08:11.288Z,3.13
2018-04-26T07:10:38.798Z,2.90
2018-04-26T07:13:06.291Z,3.50
2018-04-26T07:15:33.783Z,2.83
2018-04-26T07:18:01.279Z,3.10
2018-04-26T07:20:28.739Z,2.77
2018-04-26T07:22:56.225Z,2.90
2018-04-26T07:25:23.702Z,2.53
2018-04-26T07:27:51.217Z,3.20
2018-04-26T07:30:18.689Z,2.67
2018-04-26T07:32:46.168Z,2.50
2018-04-26T07:35:13.661Z,2.70
2018-04-26T07:37:41.147Z,2.63
2018-04-26T07:40:08.648Z,2.10
2018-04-26T07:42:36.283Z,3.33
2018-04-26T07:45:03.785Z,2.00
2018-04-26T07:47:31.351Z,2.80
2018-04-26T07:49:58.838Z,2.80
2018-04-26T07:52:26.328Z,3.03
2018-04-26T07:54:53.870Z,3.30
2018-04-26T07:57:21.385Z,2.73
2018-04-26T07:59:48.883Z,3.20
2018-04-26T08:02:16.388Z,3.20
2018-04-26T08:04:43.881Z,2.63
2018-04-26T08:07:11.382Z,2.77
2018-04-26T08:09:38.902Z,7.95
2018-04-26T08:12:06.570Z,2.30
2018-04-26T08:14:34.032Z,2.90
2018-04-26T08:17:01.519Z,2.77
2018-04-26T08:19:29.856Z,2.03
2018-04-26T08:21:57.355Z,2.77
2018-04-26T08:24:24.928Z,2.83
2018-04-26T08:26:52.426Z,2.10
2018-04-26T08:29:20.125Z,2.33
2018-04-26T08:31:47.714Z,3.43
2018-04-26T08:34:15.195Z,2.27
2018-04-26T08:36:42.687Z,2.07
2018-04-26T08:39:10.192Z,3.87
2018-04-26T08:41:37.704Z,2.50
2018-04-26T08:44:05.214Z,3.93
2018-04-26T08:46:32.703Z,2.90
2018-04-26T08:49:00.219Z,2.97
2018-04-26T08:51:27.709Z,2.30
2018-04-26T08:53:55.192Z,2.80
2018-04-26T08:56:22.761Z,2.80
2018-04-26T08:58:50.292Z,2.67
2018-04-26T09:01:17.791Z,3.40
2018-04-26T09:03:45.296Z,3.60
2018-04-26T09:06:12.827Z,3.40
2018-04-26T09:08:40.328Z,3.93
2018-04-26T09:11:07.858Z,2.90
2018-04-26T09:13:35.356Z,3.30
2018-04-26T09:16:02.855Z,3.40
2018-04-26T09:18:30.337Z,3.20
2018-04-26T09:20:57.825Z,4.40
2018-04-26T09:23:25.326Z,4.53
2018-04-26T09:25:52.827Z,4.27
2018-04-26T09:28:20.347Z,4.40
2018-04-26T09:30:47.855Z,3.37
2018-04-26T09:33:15.356Z,3.93
2018-04-26T09:35:42.860Z,3.83
2018-04-26T09:38:10.370Z,3.10
2018-04-26T09:40:37.856Z,3.07
2018-04-26T09:43:05.352Z,2.83
2018-04-26T09:45:32.822Z,3.10
2018-04-26T09:48:00.372Z,3.07
2018-04-26T09:50:27.858Z,2.90
2018-04-26T09:52:55.323Z,2.70
2018-04-26T09:55:22.841Z,2.80
2018-04-26T09:57:50.385Z,2.30
2018-04-26T10:00:23.753Z,2.13
2018-04-26T10:02:51.231Z,2.40
2018-04-26T10:05:18.723Z,2.40
2018-04-26T10:07:46.204Z,1.80
2018-04-26T10:10:26.777Z,1.70
2018-04-26T10:12:54.330Z,2.00
2018-04-26T10:15:40.192Z,2.30
2018-04-26T10:18:15.591Z,2.00
2018-04-26T10:21:04.100Z,2.00
2018-04-26T10:23:33.998Z,1.93
2018-04-26T10:26:01.665Z,2.10
2018-04-26T10:28:29.159Z,2.70
2018-04-26T10:30:56.877Z,1.70
2018-04-26T10:33:24.363Z,1.90
2018-04-26T10:35:51.873Z,2.50
2018-04-26T10:38:19.411Z,2.50
2018-04-26T10:40:46.916Z,2.60
2018-04-26T10:43:14.413Z,2.30
2018-04-26T10:45:41.941Z,2.53
2018-04-26T10:48:09.533Z,2.90
2018-04-26T10:50:37.035Z,2.83
2018-04-26T10:53:04.588Z,2.27
2018-04-26T10:55:32.062Z,2.77
2018-04-26T10:57:59.563Z,2.50
2018-04-26T11:00:27.076Z,2.60
2018-04-26T11:02:54.612Z,3.20
2018-04-26T11:05:22.128Z,2.13
2018-04-26T11:07:49.616Z,3.37
2018-04-26T11:10:17.108Z,2.00
2018-04-26T11:12:44.625Z,1.57
2018-04-26T11:15:12.170Z,1.30
2018-04-26T11:17:39.676Z,2.10
2018-04-26T11:20:07.189Z,3.43
2018-04-26T11:22:34.873Z,1.60
2018-04-26T11:25:02.376Z,2.30
2018-04-26T11:27:29.868Z,1.53
2018-04-26T11:29:57.482Z,1.70
2018-04-26T11:32:25.067Z,1.90
2018-04-26T11:34:52.625Z,1.93
2018-04-26T11:37:20.196Z,1.50
2018-04-26T11:39:47.741Z,1.80
2018-04-26T11:42:15.316Z,1.50
2018-04-26T11:44:42.808Z,1.80
2018-04-26T11:47:10.299Z,1.50
2018-04-26T11:49:37.828Z,1.50
2018-04-26T11:52:05.340Z,1.47
2018-04-26T11:54:32.902Z,1.70
2018-04-26T11:57:00.441Z,1.30
2018-04-26T11:59:28.058Z,1.30
2018-04-26T12:01:55.562Z,1.60
2018-04-26T12:04:23.059Z,1.90
2018-04-26T12:06:50.561Z,1.40
2018-04-26T12:09:18.072Z,1.77
2018-04-26T12:11:45.565Z,1.80
2018-04-26T12:14:13.042Z,2.03
2018-04-26T12:16:40.557Z,1.70
2018-04-26T12:19:08.162Z,1.50
2018-04-26T12:21:35.660Z,2.17
2018-04-26T12:24:03.176Z,1.10
2018-04-26T12:26:30.673Z,1.53
2018-04-26T12:28:58.151Z,1.60
2018-04-26T12:31:25.720Z,1.77
2018-04-26T12:33:53.232Z,1.60
2018-04-26T12:36:20.717Z,1.70
2018-04-26T12:38:48.193Z,2.10
2018-04-26T12:41:15.872Z,1.50
2018-04-26T12:43:43.391Z,1.37
2018-04-26T12:46:10.908Z,1.40
2018-04-26T12:48:38.416Z,1.70
2018-04-26T12:51:05.924Z,1.40
2018-04-26T12:53:33.425Z,1.70
2018-04-26T12:56:00.926Z,1.83
2018-04-26T12:58:28.560Z,1.83
2018-04-26T13:00:56.041Z,1.37
2018-04-26T13:03:23.534Z,1.63
2018-04-26T13:05:51.037Z,1.70
2018-04-26T13:08:18.534Z,1.30
2018-04-26T13:10:46.044Z,1.20
2018-04-26T13:13:13.630Z,1.07
2018-04-26T13:15:41.133Z,1.63
2018-04-26T13:18:08.639Z,1.50
2018-04-26T13:20:36.158Z,1.60
2018-04-26T13:23:03.672Z,1.33
2018-04-26T13:25:31.230Z,1.47
2018-04-26T13:27:58.834Z,1.60
2018-04-26T13:30:26.399Z,1.50
2018-04-26T13:32:53.885Z,1.20
2018-04-26T13:35:21.408Z,1.30
2018-04-26T13:37:48.921Z,1.13
2018-04-26T13:40:16.433Z,1.57
2018-04-26T13:42:44.071Z,1.03
2018-04-26T13:45:11.697Z,1.63
2018-04-26T13:47:39.201Z,1.40
2018-04-26T13:50:06.759Z,1.80
2018-04-26T13:52:34.268Z,1.40
2018-04-26T13:55:01.818Z,1.63
2018-04-26T13:57:29.575Z,1.40
2018-04-26T13:59:57.091Z,1.70
2018-04-26T14:02:24.613Z,3.73
2018-04-26T14:04:52.105Z,1.80
2018-04-26T14:07:19.605Z,1.40
2018-04-26T14:09:47.139Z,1.63
2018-04-26T14:12:14.668Z,3.33
2018-04-26T14:14:42.171Z,2.73
2018-04-26T14:17:09.676Z,5.40
2018-04-26T14:19:39.298Z,3.80
2018-04-26T14:22:06.838Z,3.30
2018-04-26T14:24:34.267Z,5.77
2018-04-26T14:27:01.765Z,2.70
2018-04-26T14:29:29.298Z,1.30
2018-04-26T14:31:56.783Z,1.00
2018-04-26T14:34:24.282Z,2.30
2018-04-26T14:36:51.903Z,2.97
2018-04-26T14:39:19.420Z,2.17
2018-04-26T14:41:46.918Z,2.07
2018-04-26T14:44:14.394Z,1.40
2018-04-26T14:46:42.098Z,1.60
2018-04-26T14:49:09.616Z,1.63
2018-04-26T14:51:37.361Z,2.10
2018-04-26T14:54:04.851Z,1.53
2018-04-26T14:56:32.636Z,1.87
2018-04-26T14:59:00.209Z,1.30
2018-04-26T15:01:27.807Z,1.10
2018-04-26T15:03:55.439Z,1.53
2018-04-26T15:06:22.946Z,1.27
2018-04-26T15:08:50.435Z,1.10
2018-04-26T15:11:17.944Z,1.40
2018-04-26T15:13:45.916Z,1.67
2018-04-26T15:16:13.415Z,1.30
2018-04-26T15:18:41.641Z,1.30
2018-04-26T15:21:09.131Z,1.10
2018-04-26T15:23:37.138Z,1.47
2018-04-26T15:26:04.634Z,1.53
2018-04-26T15:28:32.270Z,1.23
2018-04-26T15:30:59.762Z,1.70
2018-04-26T15:33:27.268Z,1.37
2018-04-26T15:35:54.791Z,1.40
2018-04-26T15:38:22.270Z,1.87
2018-04-26T15:40:49.785Z,1.27
2018-04-26T15:43:17.422Z,2.20
2018-04-26T15:45:44.908Z,1.20
2018-04-26T15:48:12.375Z,1.23
2018-04-26T15:50:54.746Z,1.43
2018-04-26T15:53:34.182Z,1.50
2018-04-26T15:56:16.811Z,1.70
2018-04-26T16:02:15.425Z,1.30
2018-04-26T16:04:54.663Z,1.60
2018-04-26T16:07:49.580Z,1.33
2018-04-26T16:10:29.000Z,1.67
2018-04-26T16:13:14.216Z,1.20
2018-04-26T16:15:59.264Z,1.30
2018-04-26T16:18:43.753Z,1.40
2018-04-26T16:21:28.889Z,1.60
2018-04-26T16:27:43.037Z,8.70
2018-04-26T16:30:22.953Z,1.33
2018-04-26T16:33:05.261Z,1.00
2018-04-26T16:35:44.598Z,1.60
2018-04-26T16:38:23.937Z,1.80
2018-04-26T16:40:51.543Z,1.30
2018-04-26T16:43:19.056Z,1.60
2018-04-26T16:45:46.712Z,1.57
2018-04-26T16:48:14.342Z,1.70
2018-04-26T16:50:42.043Z,2.87
2018-04-26T16:53:09.558Z,3.27
2018-04-26T16:55:37.079Z,1.90
2018-04-26T16:58:04.627Z,1.13
2018-04-26T17:00:32.140Z,1.20
2018-04-26T17:02:59.717Z,1.47
2018-04-26T17:05:27.250Z,1.00
2018-04-26T17:07:54.733Z,1.40
2018-04-26T17:10:22.235Z,1.67
2018-04-26T17:12:49.754Z,1.47
2018-04-26T17:15:17.341Z,1.10
2018-04-26T17:17:44.879Z,1.20
2018-04-26T17:20:12.370Z,1.20
2018-04-26T17:22:40.113Z,1.20
2018-04-26T17:25:07.583Z,1.67
2018-04-26T17:27:35.095Z,1.47
2018-04-26T17:30:02.678Z,1.93
2018-04-26T17:32:30.260Z,1.70
2018-04-26T17:34:58.846Z,2.10
2018-04-26T17:37:26.352Z,3.70
2018-04-26T17:39:53.854Z,1.60
2018-04-26T17:42:21.535Z,1.23
2018-04-26T17:44:49.159Z,1.50
2018-04-26T17:47:16.733Z,1.30
2018-04-26T17:49:44.216Z,0.97
2018-04-26T17:52:11.748Z,2.40
2018-04-26T17:54:39.341Z,2.07
2018-04-26T17:57:06.845Z,8.70
2018-04-26T17:59:34.352Z,8.00
2018-04-26T18:02:01.833Z,2.10
2018-04-26T18:04:29.347Z,1.33
2018-04-26T18:06:56.872Z,2.40
2018-04-26T18:09:24.377Z,1.47
2018-04-26T18:11:51.919Z,1.17
2018-04-26T18:14:19.423Z,1.40
2018-04-26T18:16:49.345Z,1.10
2018-04-26T18:19:16.857Z,1.13
2018-04-26T18:21:44.399Z,1.50
2018-04-26T18:24:11.886Z,1.60
2018-04-26T18:26:39.391Z,2.87
2018-04-26T18:29:11.833Z,1.50
2018-04-26T18:31:43.320Z,1.50
2018-04-26T18:34:17.162Z,3.20
2018-04-26T18:36:46.815Z,3.07
2018-04-26T18:39:14.297Z,1.17
2018-04-26T18:41:41.783Z,2.93
2018-04-26T18:44:09.288Z,4.17
2018-04-26T18:46:36.802Z,1.30
2018-04-26T18:49:04.302Z,2.17
2018-04-26T18:51:31.795Z,2.70
2018-04-26T18:53:59.462Z,1.47
2018-04-26T18:56:26.993Z,1.23
2018-04-26T18:58:54.486Z,1.63
2018-04-26T19:01:22.876Z,1.73
2018-04-26T19:04:10.383Z,1.60
2018-04-26T19:09:41.819Z,1.90
2018-04-26T19:12:10.012Z,1.80
2018-04-26T19:14:37.495Z,1.90
2018-04-26T19:17:04.997Z,7.90
2018-04-26T19:19:32.484Z,2.33
2018-04-26T19:22:00.161Z,1.50
2018-04-26T19:24:27.842Z,1.80
2018-04-26T19:26:55.352Z,3.17
2018-04-26T19:29:22.866Z,1.90
2018-04-26T19:31:50.449Z,2.20
2018-04-26T19:34:17.946Z,1.83
2018-04-26T19:36:45.514Z,1.70
2018-04-26T19:39:13.010Z,1.60
2018-04-26T19:41:40.493Z,1.93
2018-04-26T19:44:08.005Z,1.97
2018-04-26T19:46:35.522Z,1.43
2018-04-26T19:49:03.043Z,1.43
2018-04-26T19:51:30.513Z,2.07
2018-04-26T19:53:58.014Z,1.47
2018-04-26T19:56:25.503Z,2.17
2018-04-26T19:58:53.106Z,1.87
2018-04-26T20:01:20.765Z,1.63
2018-04-26T20:03:48.241Z,1.90
2018-04-26T20:06:15.759Z,1.80
2018-04-26T20:08:43.437Z,1.40
2018-04-26T20:11:10.934Z,2.17
2018-04-26T20:13:38.487Z,1.37
2018-04-26T20:16:05.976Z,1.60
2018-04-26T20:18:33.491Z,1.80
2018-04-26T20:21:01.051Z,1.80
2018-04-26T20:23:28.651Z,1.40
2018-04-26T20:25:56.665Z,2.07
2018-04-26T20:28:24.397Z,2.07
2018-04-26T20:30:51.922Z,1.37
2018-04-26T20:33:19.514Z,1.90
2018-04-26T20:35:47.048Z,1.87
2018-04-26T20:38:14.527Z,2.07
2018-04-26T20:40:42.105Z,2.43
2018-04-26T20:43:09.612Z,1.93
2018-04-26T20:45:37.143Z,1.70
2018-04-26T20:48:06.162Z,1.40
2018-04-26T20:50:33.794Z,2.10
2018-04-26T20:53:01.277Z,1.63
2018-04-26T20:55:28.763Z,1.90
2018-04-26T20:57:56.263Z,1.80
2018-04-26T21:00:25.985Z,1.63
2018-04-26T21:02:53.536Z,1.60
2018-04-26T21:05:21.166Z,1.70
2018-04-26T21:07:48.762Z,1.60
2018-04-26T21:10:16.307Z,2.13
2018-04-26T21:12:45.471Z,1.33
2018-04-26T21:15:13.224Z,1.80
2018-04-26T21:17:45.198Z,3.20
2018-04-26T21:20:13.192Z,4.03
2018-04-26T21:22:40.812Z,2.20
2018-04-26T21:25:08.398Z,2.53
2018-04-26T21:27:35.968Z,3.13
2018-04-26T21:30:03.538Z,6.97
2018-04-26T21:32:31.107Z,6.20
2018-04-26T21:34:58.721Z,4.90
2018-04-26T21:37:26.351Z,2.20
2018-04-26T21:39:53.877Z,2.63
2018-04-26T21:42:22.018Z,2.60
2018-04-26T21:44:49.604Z,3.27
2018-04-26T21:47:17.130Z,2.93
2018-04-26T21:49:44.094Z,2.57
2018-04-26T21:52:17.318Z,4.07
2018-04-26T21:54:50.584Z,4.80
2018-04-26T21:57:23.700Z,2.70
2018-04-26T21:59:57.289Z,2.73
2018-04-26T22:02:24.339Z,3.23
2018-04-26T22:07:53.761Z,2.20
2018-04-26T22:10:21.327Z,2.60
2018-04-26T22:12:48.922Z,2.37
2018-04-26T22:15:16.470Z,2.70
2018-04-26T22:17:44.026Z,2.90
2018-04-26T22:20:11.567Z,1.63
2018-04-26T22:22:39.124Z,2.37
2018-04-26T22:25:06.686Z,2.00
2018-04-26T22:27:34.343Z,1.77
2018-04-26T22:30:01.918Z,2.17
2018-04-26T22:32:29.485Z,2.00
2018-04-26T22:34:56.993Z,1.83
2018-04-26T22:37:24.635Z,2.43
2018-04-26T22:39:52.523Z,2.50
2018-04-26T22:42:20.055Z,2.03
2018-04-26T22:44:47.726Z,2.53
2018-04-26T22:47:15.277Z,2.45
2018-04-26T22:49:42.851Z,2.20
2018-04-26T22:52:11.006Z,2.13
2018-04-26T22:54:39.514Z,2.40
2018-04-26T22:57:07.077Z,2.63
2018-04-26T22:59:34.596Z,2.80
2018-04-26T23:02:02.148Z,2.27
2018-04-26T23:04:29.898Z,2.78
2018-04-26T23:06:57.537Z,2.67
2018-04-26T23:09:25.076Z,2.00
2018-04-26T23:11:52.640Z,2.17
2018-04-26T23:14:20.213Z,2.67
2018-04-26T23:16:47.797Z,2.30
2018-04-26T23:19:15.354Z,3.17
2018-04-26T23:21:42.898Z,2.55
2018-04-26T23:24:10.524Z,2.80
2018-04-26T23:26:38.198Z,2.90
2018-04-26T23:29:05.755Z,2.60
2018-04-26T23:31:33.344Z,2.70
2018-04-26T23:34:00.876Z,3.12
2018-04-26T23:36:28.440Z,3.23
2018-04-26T23:38:55.981Z,2.90
2018-04-26T23:41:23.562Z,2.78
2018-04-26T23:43:51.116Z,2.70
2018-04-26T23:46:18.670Z,3.30
2018-04-26T23:48:46.210Z,3.35
2018-04-26T23:51:13.779Z,2.60
2018-04-26T23:53:41.332Z,2.92
2018-04-26T23:56:08.876Z,2.80
2018-04-26T23:58:36.441Z,2.75
